createdAt,value
2022-08-09T00:01:43.097Z,2.30
2022-08-09T00:04:34.655Z,2.10
2022-08-09T00:07:07.715Z,2.33
2022-08-09T00:09:46.279Z,2.10
2022-08-09T00:12:22.837Z,2.30
2022-08-09T00:14:56.684Z,2.20
2022-08-09T00:18:05.381Z,2.35
2022-08-09T00:20:12.941Z,2.40
2022-08-09T00:22:42.400Z,1.90
2022-08-09T00:25:12.804Z,2.30
2022-08-09T00:27:43.048Z,2.45
2022-08-09T00:30:24.928Z,2.00
2022-08-09T00:32:53.211Z,2.37
2022-08-09T00:35:24.079Z,2.30
2022-08-09T00:37:55.984Z,2.53
2022-08-09T00:40:23.230Z,2.35
2022-08-09T00:44:15.001Z,2.40
2022-08-09T00:45:50.455Z,2.33
2022-08-09T00:48:22.026Z,2.10
2022-08-09T00:50:52.307Z,2.63
2022-08-09T00:53:24.100Z,2.30
2022-08-09T00:56:04.969Z,2.20
2022-08-09T00:58:36.707Z,1.95
2022-08-09T01:01:16.151Z,2.30
2022-08-09T01:04:08.690Z,2.13
2022-08-09T01:06:54.843Z,2.20
2022-08-09T01:09:47.514Z,2.25
2022-08-09T01:12:35.238Z,2.10
2022-08-09T01:15:16.652Z,2.10
2022-08-09T01:17:52.003Z,2.10
2022-08-09T01:20:55.146Z,2.28
2022-08-09T01:24:02.902Z,2.00
2022-08-09T01:26:21.297Z,2.20
2022-08-09T01:32:31.187Z,2.20
2022-08-09T01:34:20.862Z,2.27
2022-08-09T01:36:52.981Z,2.42
2022-08-09T01:39:23.207Z,2.28
2022-08-09T01:41:55.710Z,2.00
2022-08-09T01:44:33.603Z,2.10
2022-08-09T01:47:04.252Z,2.40
2022-08-09T01:49:39.262Z,2.40
2022-08-09T01:52:15.129Z,2.50
2022-08-09T01:54:53.973Z,2.10
2022-08-09T01:57:29.417Z,2.20
2022-08-09T02:00:34.312Z,2.33
2022-08-09T02:03:05.418Z,2.25
2022-08-09T02:05:53.694Z,2.47
2022-08-09T02:08:38.947Z,2.20
2022-08-09T02:11:17.335Z,2.40
2022-08-09T02:13:55.360Z,2.10
2022-08-09T02:16:53.008Z,2.30
2022-08-09T02:19:25.042Z,2.10
2022-08-09T02:22:36.130Z,2.15
2022-08-09T02:25:10.127Z,2.28
2022-08-09T02:27:57.700Z,2.42
2022-08-09T02:30:33.431Z,2.35
2022-08-09T02:33:02.669Z,2.40
2022-08-09T02:36:01.605Z,2.15
2022-08-09T02:38:32.373Z,2.22
2022-08-09T02:41:08.630Z,2.42
2022-08-09T02:43:42.416Z,2.50
2022-08-09T02:46:27.550Z,2.35
2022-08-09T02:48:59.129Z,2.42
2022-08-09T02:51:37.165Z,2.85
2022-08-09T02:54:14.012Z,2.40
2022-08-09T02:56:51.317Z,2.55
2022-08-09T02:59:26.464Z,2.60
2022-08-09T03:02:11.981Z,2.40
2022-08-09T03:04:41.859Z,2.10
2022-08-09T03:07:14.472Z,2.40
2022-08-09T03:09:56.573Z,2.58
2022-08-09T03:12:26.047Z,2.35
2022-08-09T03:14:55.110Z,2.35
2022-08-09T03:17:27.160Z,2.60
2022-08-09T03:20:05.072Z,2.20
2022-08-09T03:25:21.961Z,2.30
2022-08-09T03:28:02.871Z,2.15
2022-08-09T03:30:34.214Z,2.15
2022-08-09T03:36:13.757Z,2.28
2022-08-09T03:38:42.606Z,2.30
2022-08-09T03:41:16.555Z,2.20
2022-08-09T03:44:03.306Z,2.20
2022-08-09T03:46:34.582Z,2.30
2022-08-09T03:49:07.924Z,2.03
2022-08-09T03:51:58.554Z,2.20
2022-08-09T03:54:39.608Z,2.22
2022-08-09T03:57:20.210Z,2.17
2022-08-09T03:59:54.404Z,2.30
2022-08-09T04:02:28.479Z,2.10
2022-08-09T04:04:59.076Z,2.00
2022-08-09T04:07:33.816Z,2.30
2022-08-09T04:10:21.016Z,2.10
2022-08-09T04:13:00.721Z,2.45
2022-08-09T04:15:51.973Z,2.25
2022-08-09T04:18:21.885Z,2.03
2022-08-09T04:20:51.440Z,2.35
2022-08-09T04:23:24.346Z,2.08
2022-08-09T04:25:54.931Z,2.50
2022-08-09T04:28:33.569Z,2.28
2022-08-09T04:31:09.841Z,2.20
2022-08-09T04:33:52.689Z,2.50
2022-08-09T04:36:27.947Z,1.92
2022-08-09T04:39:00.631Z,2.35
2022-08-09T04:41:33.801Z,2.20
2022-08-09T04:44:12.400Z,2.10
2022-08-09T04:46:58.360Z,2.45
2022-08-09T04:49:52.539Z,2.20
2022-08-09T04:52:27.828Z,2.25
2022-08-09T04:55:01.806Z,2.80
2022-08-09T04:57:59.411Z,2.60
2022-08-09T05:00:20.156Z,2.42
2022-08-09T05:02:51.935Z,2.25
2022-08-09T05:05:32.074Z,2.45
2022-08-09T05:08:09.102Z,2.75
2022-08-09T05:10:36.626Z,2.78
2022-08-09T05:13:04.403Z,2.80
2022-08-09T05:15:42.704Z,2.40
2022-08-09T05:18:42.765Z,2.72
2022-08-09T05:21:03.090Z,2.35
2022-08-09T05:23:55.319Z,2.45
2022-08-09T05:26:33.868Z,2.70
2022-08-09T05:29:04.904Z,2.63
2022-08-09T05:31:44.455Z,3.15
2022-08-09T05:34:18.068Z,2.55
2022-08-09T05:36:59.066Z,2.35
2022-08-09T05:39:43.678Z,2.63
2022-08-09T05:42:20.864Z,2.40
2022-08-09T05:44:59.110Z,2.40
2022-08-09T05:47:36.604Z,2.70
2022-08-09T05:50:44.307Z,2.35
2022-08-09T05:53:33.387Z,2.40
2022-08-09T05:56:09.916Z,2.53
2022-08-09T05:58:44.237Z,2.35
2022-08-09T06:01:15.899Z,2.67
2022-08-09T06:03:58.076Z,2.30
2022-08-09T06:06:27.587Z,2.40
2022-08-09T06:09:03.024Z,2.15
2022-08-09T06:11:41.177Z,2.58
2022-08-09T06:14:24.881Z,2.40
2022-08-09T06:16:52.728Z,2.60
2022-08-09T06:19:22.313Z,2.50
2022-08-09T06:21:58.711Z,2.40
2022-08-09T06:24:29.052Z,2.42
2022-08-09T06:26:56.635Z,2.03
2022-08-09T06:29:24.851Z,2.45
2022-08-09T06:32:08.918Z,2.83
2022-08-09T06:34:39.055Z,2.42
2022-08-09T06:37:19.130Z,2.83
2022-08-09T06:40:00.099Z,3.17
2022-08-09T06:42:45.161Z,3.60
2022-08-09T06:46:06.431Z,3.78
2022-08-09T06:48:30.481Z,3.63
2022-08-09T06:50:59.751Z,3.20
2022-08-09T06:53:38.063Z,3.75
2022-08-09T06:56:07.940Z,3.40
2022-08-09T07:00:49.453Z,3.58
2022-08-09T07:01:35.691Z,3.60
2022-08-09T07:04:12.215Z,3.60
2022-08-09T07:06:53.407Z,3.53
2022-08-09T07:09:54.853Z,3.30
2022-08-09T07:12:22.109Z,3.58
2022-08-09T07:16:36.370Z,3.38
2022-08-09T07:18:01.918Z,3.08
2022-08-09T07:20:32.421Z,3.20
2022-08-09T07:23:00.050Z,3.05
2022-08-09T07:25:27.364Z,4.05
2022-08-09T07:27:56.774Z,3.47
2022-08-09T07:30:25.254Z,3.60
2022-08-09T07:32:54.746Z,3.30
2022-08-09T07:35:53.139Z,3.97
2022-08-09T07:38:31.071Z,3.90
2022-08-09T07:41:12.915Z,3.15
2022-08-09T07:46:29.377Z,3.38
2022-08-09T07:49:03.677Z,2.88
2022-08-09T07:52:05.814Z,2.88
2022-08-09T07:56:59.865Z,2.70
2022-08-09T07:59:45.962Z,3.05
2022-08-09T08:02:21.275Z,2.38
2022-08-09T08:04:49.408Z,3.08
2022-08-09T08:08:42.837Z,2.60
2022-08-09T08:10:15.246Z,2.78
2022-08-09T08:12:56.567Z,2.40
2022-08-09T08:15:26.019Z,2.33
2022-08-09T08:17:58.225Z,2.60
2022-08-09T08:20:32.589Z,2.47
2022-08-09T08:23:16.830Z,2.60
2022-08-09T08:25:50.399Z,2.40
2022-08-09T08:28:32.146Z,2.50
2022-08-09T08:31:10.379Z,2.83
2022-08-09T08:33:53.699Z,2.17
2022-08-09T08:36:30.724Z,2.22
2022-08-09T08:38:59.820Z,2.63
2022-08-09T08:41:50.441Z,2.47
2022-08-09T08:44:23.150Z,2.17
2022-08-09T08:47:05.150Z,2.15
2022-08-09T08:49:47.901Z,2.20
2022-08-09T08:55:07.268Z,2.08
2022-08-09T08:57:35.934Z,2.67
2022-08-09T09:00:20.918Z,2.75
2022-08-09T09:03:08.146Z,2.28
2022-08-09T09:06:00.169Z,2.35
2022-08-09T09:08:30.320Z,2.28
2022-08-09T09:11:03.988Z,2.20
2022-08-09T09:13:54.897Z,2.55
2022-08-09T09:16:30.837Z,2.30
2022-08-09T09:19:41.495Z,2.17
2022-08-09T09:22:05.120Z,2.40
2022-08-09T09:26:02.013Z,2.33
2022-08-09T09:28:03.897Z,2.33
2022-08-09T09:30:41.360Z,2.40
2022-08-09T09:33:15.449Z,2.30
2022-08-09T09:36:11.740Z,2.15
2022-08-09T09:38:56.686Z,2.37
2022-08-09T09:41:26.179Z,2.35
2022-08-09T09:44:11.469Z,2.03
2022-08-09T09:46:51.472Z,2.17
2022-08-09T09:49:56.437Z,2.20
2022-08-09T09:52:33.368Z,2.45
2022-08-09T09:55:16.049Z,2.33
2022-08-09T09:58:17.106Z,2.25
2022-08-09T10:00:54.298Z,2.42
2022-08-09T10:03:44.834Z,2.40
2022-08-09T10:06:46.743Z,3.30
2022-08-09T10:09:22.357Z,2.70
2022-08-09T10:12:11.389Z,2.28
2022-08-09T10:14:48.846Z,2.83
2022-08-09T10:17:51.194Z,2.50
2022-08-09T10:20:26.890Z,2.40
2022-08-09T10:23:17.461Z,2.50
2022-08-09T10:26:07.839Z,2.30
2022-08-09T10:28:40.787Z,2.40
2022-08-09T10:34:10.918Z,2.00
2022-08-09T10:36:47.736Z,2.13
2022-08-09T10:39:19.616Z,2.35
2022-08-09T10:41:48.347Z,2.17
2022-08-09T10:44:23.148Z,2.03
2022-08-09T10:48:16.214Z,2.22
2022-08-09T10:51:04.254Z,1.95
2022-08-09T10:54:04.644Z,2.05
2022-08-09T10:56:40.132Z,2.22
2022-08-09T10:59:31.261Z,1.90
2022-08-09T11:03:15.745Z,1.95
2022-08-09T11:05:14.252Z,2.30
2022-08-09T11:07:58.293Z,2.00
2022-08-09T11:13:49.891Z,2.30
2022-08-09T11:16:37.334Z,2.20
2022-08-09T11:19:07.950Z,2.60
2022-08-09T11:22:05.010Z,1.92
2022-08-09T11:24:56.403Z,2.00
2022-08-09T11:28:02.873Z,2.00
2022-08-09T11:30:33.810Z,1.92
2022-08-09T11:33:05.718Z,2.00
2022-08-09T11:35:49.502Z,2.10
2022-08-09T11:38:19.292Z,2.10
2022-08-09T11:40:54.884Z,1.88
2022-08-09T11:43:32.531Z,1.80
2022-08-09T11:46:01.976Z,2.10
2022-08-09T11:48:32.297Z,2.22
2022-08-09T11:53:00.750Z,1.90
2022-08-09T11:54:14.041Z,1.80
2022-08-09T11:56:48.064Z,2.10
2022-08-09T11:59:33.002Z,2.00
2022-08-09T12:02:17.661Z,1.95
2022-08-09T12:04:58.134Z,2.00
2022-08-09T12:07:41.054Z,2.00
2022-08-09T12:10:38.304Z,2.00
2022-08-09T12:14:07.017Z,1.98
2022-08-09T12:16:02.042Z,1.90
2022-08-09T12:18:33.901Z,2.10
2022-08-09T12:21:11.034Z,2.20
2022-08-09T12:24:06.737Z,2.60
2022-08-09T12:26:53.031Z,2.20
2022-08-09T12:29:58.592Z,1.93
2022-08-09T12:32:31.964Z,2.22
2022-08-09T12:35:04.684Z,2.10
2022-08-09T12:37:44.240Z,2.20
2022-08-09T12:40:23.277Z,1.90
2022-08-09T12:42:53.519Z,2.15
2022-08-09T12:45:33.387Z,2.47
2022-08-09T12:48:19.850Z,2.30
2022-08-09T12:50:52.171Z,2.00
2022-08-09T12:53:41.219Z,2.30
2022-08-09T12:56:39.258Z,2.00
2022-08-09T12:59:19.931Z,2.20
2022-08-09T13:02:05.108Z,1.80
2022-08-09T13:04:39.949Z,1.80
2022-08-09T13:07:19.714Z,2.40
2022-08-09T13:10:04.631Z,1.92
2022-08-09T13:13:10.258Z,2.00
2022-08-09T13:15:50.088Z,1.90
2022-08-09T13:18:18.656Z,2.00
2022-08-09T13:20:50.282Z,2.00
2022-08-09T13:24:16.270Z,1.70
2022-08-09T13:26:37.616Z,2.10
2022-08-09T13:29:08.730Z,2.38
2022-08-09T13:32:15.870Z,2.40
2022-08-09T13:34:42.051Z,2.20
2022-08-09T13:37:09.331Z,2.15
2022-08-09T13:41:55.513Z,2.42
2022-08-09T13:42:29.052Z,2.25
2022-08-09T13:44:58.607Z,2.08
2022-08-09T13:47:49.548Z,2.30
2022-08-09T13:50:29.970Z,2.47
2022-08-09T13:53:01.935Z,2.30
2022-08-09T13:55:31.048Z,2.60
2022-08-09T13:58:11.719Z,2.10
2022-08-09T14:00:50.427Z,2.10
2022-08-09T14:04:03.225Z,2.45
2022-08-09T14:06:26.637Z,2.58
2022-08-09T14:08:57.319Z,2.22
2022-08-09T14:11:27.974Z,2.22
2022-08-09T14:14:22.623Z,1.90
2022-08-09T14:16:44.961Z,1.90
2022-08-09T14:19:14.771Z,2.15
2022-08-09T14:21:48.227Z,1.83
2022-08-09T14:24:32.141Z,2.03
2022-08-09T14:27:01.333Z,1.80
2022-08-09T14:30:35.034Z,2.05
2022-08-09T14:32:19.998Z,1.85
2022-08-09T14:34:57.226Z,1.90
2022-08-09T14:37:28.584Z,2.10
2022-08-09T14:40:09.206Z,2.00
2022-08-09T14:42:41.194Z,1.80
2022-08-09T14:46:46.445Z,1.90
2022-08-09T14:48:04.910Z,1.90
2022-08-09T14:50:34.547Z,1.63
2022-08-09T14:53:06.378Z,1.85
2022-08-09T14:55:47.821Z,1.80
2022-08-09T14:58:22.490Z,1.70
2022-08-09T15:00:53.290Z,1.77
2022-08-09T15:03:25.769Z,1.77
2022-08-09T15:05:56.875Z,2.00
2022-08-09T15:08:30.492Z,1.70
2022-08-09T15:11:06.970Z,2.20
2022-08-09T15:13:56.388Z,1.95
2022-08-09T15:16:29.772Z,1.95
2022-08-09T15:18:59.677Z,1.70
2022-08-09T15:21:56.132Z,2.40
2022-08-09T15:24:23.306Z,2.22
2022-08-09T15:26:57.734Z,1.98
2022-08-09T15:30:58.280Z,2.30
2022-08-09T15:32:28.552Z,2.20
2022-08-09T15:35:18.519Z,2.00
2022-08-09T15:37:56.758Z,2.80
2022-08-09T15:40:43.879Z,3.42
2022-08-09T15:43:13.337Z,2.90
2022-08-09T15:46:07.528Z,2.58
2022-08-09T15:48:32.136Z,2.70
2022-08-09T15:51:00.478Z,3.10
2022-08-09T15:54:05.276Z,2.38
2022-08-09T15:56:29.147Z,2.72
2022-08-09T15:58:58.859Z,2.50
2022-08-09T16:01:31.558Z,2.50
2022-08-09T16:04:04.979Z,2.13
2022-08-09T16:06:39.508Z,2.65
2022-08-09T16:09:15.961Z,2.38
2022-08-09T16:11:49.335Z,2.22
2022-08-09T16:14:24.219Z,2.50
2022-08-09T16:16:59.761Z,2.47
2022-08-09T16:19:36.599Z,2.30
2022-08-09T16:22:16.418Z,2.10
2022-08-09T16:24:47.105Z,2.72
2022-08-09T16:27:24.407Z,2.30
2022-08-09T16:30:15.293Z,2.90
2022-08-09T16:33:15.693Z,2.80
2022-08-09T16:35:55.693Z,3.03
2022-08-09T16:38:34.532Z,2.47
2022-08-09T16:41:04.711Z,3.33
2022-08-09T16:43:40.479Z,2.85
2022-08-09T16:46:08.157Z,2.88
2022-08-09T16:48:52.097Z,2.38
2022-08-09T16:51:38.651Z,2.60
2022-08-09T16:54:25.976Z,2.85
2022-08-09T16:57:08.245Z,3.28
2022-08-09T16:59:50.384Z,2.92
2022-08-09T17:02:30.332Z,2.58
2022-08-09T17:05:03.635Z,3.00
2022-08-09T17:08:43.948Z,2.55
2022-08-09T17:10:22.216Z,3.00
2022-08-09T17:12:52.655Z,2.80
2022-08-09T17:15:59.309Z,2.90
2022-08-09T17:18:10.683Z,2.70
2022-08-09T17:20:46.678Z,2.53
2022-08-09T17:24:20.737Z,2.72
2022-08-09T17:26:29.410Z,2.50
2022-08-09T17:29:11.497Z,2.30
2022-08-09T17:31:54.658Z,2.10
2022-08-09T17:35:07.406Z,2.15
2022-08-09T17:37:19.758Z,2.50
2022-08-09T17:39:53.595Z,2.83
2022-08-09T17:42:41.119Z,1.98
2022-08-09T17:45:16.144Z,2.13
2022-08-09T17:48:02.776Z,2.40
2022-08-09T17:50:37.279Z,2.13
2022-08-09T17:53:21.779Z,2.20
2022-08-09T17:55:57.594Z,2.22
2022-08-09T17:58:30.942Z,2.22
2022-08-09T18:00:59.915Z,2.05
2022-08-09T18:03:30.438Z,2.00
2022-08-09T18:06:00.702Z,2.30
2022-08-09T18:08:28.392Z,2.30
2022-08-09T18:11:02.029Z,2.10
2022-08-09T18:13:39.732Z,2.17
2022-08-09T18:16:28.918Z,2.28
2022-08-09T18:19:04.069Z,2.20
2022-08-09T18:21:41.312Z,2.20
2022-08-09T18:24:14.427Z,2.22
2022-08-09T18:26:46.972Z,1.80
2022-08-09T18:30:38.913Z,1.88
2022-08-09T18:32:04.975Z,2.15
2022-08-09T18:34:35.427Z,2.25
2022-08-09T18:37:04.543Z,2.00
2022-08-09T18:39:45.961Z,2.30
2022-08-09T18:42:18.695Z,2.30
2022-08-09T18:44:48.561Z,2.25
2022-08-09T18:47:19.526Z,2.30
2022-08-09T18:49:52.154Z,2.28
2022-08-09T18:52:28.380Z,2.15
2022-08-09T18:55:13.508Z,1.70
2022-08-09T18:57:44.558Z,2.47
2022-08-09T19:00:16.814Z,2.30
2022-08-09T19:02:51.006Z,2.17
2022-08-09T19:05:41.329Z,1.80
2022-08-09T19:08:10.242Z,2.08
2022-08-09T19:10:39.939Z,2.10
2022-08-09T19:13:22.971Z,2.00
2022-08-09T19:15:58.870Z,1.90
2022-08-09T19:18:34.164Z,1.90
2022-08-09T19:21:10.452Z,2.03
2022-08-09T19:24:38.274Z,2.35
2022-08-09T19:26:31.242Z,2.17
2022-08-09T19:29:03.253Z,2.20
2022-08-09T19:31:45.532Z,2.00
2022-08-09T19:34:18.342Z,1.90
2022-08-09T19:36:58.252Z,2.08
2022-08-09T19:39:43.095Z,2.03
2022-08-09T19:42:19.399Z,2.10
2022-08-09T19:44:50.638Z,2.00
2022-08-09T19:47:27.071Z,2.17
2022-08-09T19:50:09.958Z,2.25
2022-08-09T19:52:49.431Z,2.05
2022-08-09T19:55:30.757Z,2.00
2022-08-09T19:58:15.923Z,2.10
2022-08-09T20:04:26.236Z,2.20
2022-08-09T20:06:03.417Z,2.10
2022-08-09T20:08:35.277Z,2.10
2022-08-09T20:11:06.081Z,2.08
2022-08-09T20:13:36.797Z,2.15
2022-08-09T20:16:38.149Z,2.10
2022-08-09T20:19:42.021Z,2.17
2022-08-09T20:21:55.920Z,2.15
2022-08-09T20:24:29.467Z,2.30
2022-08-09T20:27:07.986Z,2.30
2022-08-09T20:29:39.738Z,2.22
2022-08-09T20:32:29.291Z,2.20
2022-08-09T20:34:57.073Z,2.30
2022-08-09T20:37:24.738Z,2.00
2022-08-09T20:40:17.717Z,2.60
2022-08-09T20:42:39.299Z,2.22
2022-08-09T20:48:03.166Z,2.40
2022-08-09T20:50:47.380Z,2.30
2022-08-09T20:53:34.948Z,2.10
2022-08-09T20:56:04.003Z,1.92
2022-08-09T20:58:33.291Z,2.17
2022-08-09T21:01:32.422Z,2.60
2022-08-09T21:04:07.922Z,2.50
2022-08-09T21:06:44.124Z,2.20
2022-08-09T21:09:13.798Z,2.58
2022-08-09T21:14:31.124Z,2.10
2022-08-09T21:17:01.971Z,2.28
2022-08-09T21:20:18.682Z,2.40
2022-08-09T21:22:46.942Z,2.22
2022-08-09T21:25:37.688Z,1.90
2022-08-09T21:28:07.277Z,2.05
2022-08-09T21:30:40.860Z,1.95
2022-08-09T21:33:09.039Z,2.13
2022-08-09T21:35:40.913Z,2.17
2022-08-09T21:38:21.043Z,2.00
2022-08-09T21:40:59.339Z,2.50
2022-08-09T21:43:56.130Z,2.17
2022-08-09T21:46:16.802Z,2.30
2022-08-09T21:48:49.194Z,2.30
2022-08-09T21:51:24.434Z,2.42
2022-08-09T21:54:03.765Z,2.50
2022-08-09T21:56:42.999Z,2.35
2022-08-09T21:59:12.059Z,2.30
2022-08-09T22:02:00.422Z,2.30
2022-08-09T22:04:56.804Z,2.30
2022-08-09T22:07:35.435Z,2.28
2022-08-09T22:10:09.173Z,2.00
2022-08-09T22:12:38.016Z,2.40
2022-08-09T22:15:15.717Z,2.30
2022-08-09T22:17:46.270Z,2.35
2022-08-09T22:20:17.063Z,2.00
2022-08-09T22:22:51.388Z,2.78
2022-08-09T22:26:08.309Z,2.20
2022-08-09T22:28:06.671Z,2.10
2022-08-09T22:30:34.777Z,2.42
2022-08-09T22:33:09.391Z,2.20
2022-08-09T22:36:01.343Z,2.30
2022-08-09T22:38:27.574Z,2.63
2022-08-09T22:40:58.203Z,2.22
2022-08-09T22:44:01.414Z,2.40
2022-08-09T22:48:16.724Z,2.60
2022-08-09T22:49:09.632Z,2.17
2022-08-09T22:51:38.583Z,2.40
2022-08-09T22:54:12.781Z,2.42
2022-08-09T22:56:42.199Z,2.30
2022-08-09T22:59:57.430Z,2.33
2022-08-09T23:02:05.493Z,2.30
2022-08-09T23:04:38.346Z,2.10
2022-08-09T23:08:22.592Z,2.33
2022-08-09T23:10:12.671Z,2.20
2022-08-09T23:12:39.854Z,2.60
2022-08-09T23:15:08.041Z,2.55
2022-08-09T23:17:35.959Z,2.35
2022-08-09T23:20:08.054Z,2.30
2022-08-09T23:22:35.853Z,2.30
2022-08-09T23:25:05.458Z,2.40
2022-08-09T23:27:33.099Z,2.22
2022-08-09T23:30:00.528Z,2.17
2022-08-09T23:32:27.780Z,2.20
2022-08-09T23:34:54.917Z,2.50
2022-08-09T23:37:22.866Z,2.40
2022-08-09T23:39:57.577Z,2.05
2022-08-09T23:42:26.837Z,2.30
2022-08-09T23:44:56.724Z,2.33
2022-08-09T23:47:24.991Z,2.75
2022-08-09T23:49:52.413Z,2.42
2022-08-09T23:52:19.654Z,2.05
2022-08-09T23:54:54.088Z,2.17
2022-08-09T23:57:22.051Z,2.40
